Terminal Aerodrome Forecast
Issued by NWS

Home | Current Version | Previous Version | Graphics & Text | Print | Product List | Glossary On
Versions: 1 2 3 4 5 6 7 8 9 10 11 12 13 14 15 16 17 18 19 20 21 22 23 24 25 26 27 28 29 30 31 32 33 34 35 36 37 38 39 40 41 42 43 44 45 46 47 48 49 50
000
FTUS43 KLOT 071140
TAFGYY
TAF
KGYY 071140Z 0712/0812 20013G21KT P6SM OVC120
     FM071400 23015G25KT P6SM BKN150
     FM080000 25010KT P6SM BKN080
     FM080800 28011KT P6SM OVC020
      TEMPO 0810/0812 1 1/2SM -SHSN OVC010=

USA.gov is the U.S. government's official web portal to all federal, state and local government web resources and services.